sensor_id;sensor_type;location;lat;lon;timestamp;P1;durP1;ratioP1;P2;durP2;ratioP2
48550;SDS011;34397;51.176;6.738;2022-12-18T00:02:03;16.55;;;8.07;;
48550;SDS011;34397;51.176;6.738;2022-12-18T00:04:36;15.57;;;9.30;;
48550;SDS011;34397;51.176;6.738;2022-12-18T00:07:08;16.95;;;8.50;;
48550;SDS011;34397;51.176;6.738;2022-12-18T00:09:40;13.70;;;7.20;;
48550;SDS011;34397;51.176;6.738;2022-12-18T00:12:12;15.75;;;7.75;;
48550;SDS011;34397;51.176;6.738;2022-12-18T00:14:44;16.70;;;8.82;;
48550;SDS011;34397;51.176;6.738;2022-12-18T00:17:15;15.30;;;8.35;;
48550;SDS011;34397;51.176;6.738;2022-12-18T00:19:49;15.98;;;8.38;;
48550;SDS011;34397;51.176;6.738;2022-12-18T00:22:20;16.13;;;8.63;;
48550;SDS011;34397;51.176;6.738;2022-12-18T00:24:52;19.10;;;8.38;;
48550;SDS011;34397;51.176;6.738;2022-12-18T00:27:24;19.48;;;9.52;;
48550;SDS011;34397;51.176;6.738;2022-12-18T00:29:56;16.10;;;8.93;;
48550;SDS011;34397;51.176;6.738;2022-12-18T00:32:28;18.42;;;8.95;;
48550;SDS011;34397;51.176;6.738;2022-12-18T00:35:01;16.08;;;8.10;;
48550;SDS011;34397;51.176;6.738;2022-12-18T00:37:33;17.48;;;7.82;;
48550;SDS011;34397;51.176;6.738;2022-12-18T00:40:05;19.52;;;8.50;;
48550;SDS011;34397;51.176;6.738;2022-12-18T00:42:39;17.50;;;7.88;;
48550;SDS011;34397;51.176;6.738;2022-12-18T00:45:28;17.33;;;9.10;;
48550;SDS011;34397;51.176;6.738;2022-12-18T00:48:01;17.63;;;8.43;;
48550;SDS011;34397;51.176;6.738;2022-12-18T00:50:35;17.73;;;8.88;;
48550;SDS011;34397;51.176;6.738;2022-12-18T00:53:07;16.05;;;9.15;;
48550;SDS011;34397;51.176;6.738;2022-12-18T00:55:41;17.25;;;8.75;;
48550;SDS011;34397;51.176;6.738;2022-12-18T00:58:15;19.00;;;8.80;;
48550;SDS011;34397;51.176;6.738;2022-12-18T01:00:48;10.00;;;4.57;;
48550;SDS011;34397;51.176;6.738;2022-12-18T01:03:19;18.35;;;9.75;;
48550;SDS011;34397;51.176;6.738;2022-12-18T01:05:53;19.00;;;9.02;;
48550;SDS011;34397;51.176;6.738;2022-12-18T01:08:24;17.10;;;8.68;;
48550;SDS011;34397;51.176;6.738;2022-12-18T01:10:56;16.17;;;8.55;;
48550;SDS011;34397;51.176;6.738;2022-12-18T01:13:28;16.80;;;9.18;;
48550;SDS011;34397;51.176;6.738;2022-12-18T01:16:00;19.75;;;9.93;;
48550;SDS011;34397;51.176;6.738;2022-12-18T01:18:32;16.88;;;8.65;;
48550;SDS011;34397;51.176;6.738;2022-12-18T01:21:07;16.30;;;8.90;;
48550;SDS011;34397;51.176;6.738;2022-12-18T01:23:40;17.00;;;8.77;;
48550;SDS011;34397;51.176;6.738;2022-12-18T01:26:13;17.70;;;7.50;;
48550;SDS011;34397;51.176;6.738;2022-12-18T01:28:46;17.63;;;8.18;;
48550;SDS011;34397;51.176;6.738;2022-12-18T01:31:19;18.10;;;6.82;;
48550;SDS011;34397;51.176;6.738;2022-12-18T01:33:53;16.75;;;7.60;;
48550;SDS011;34397;51.176;6.738;2022-12-18T01:36:28;16.83;;;8.90;;
48550;SDS011;34397;51.176;6.738;2022-12-18T01:39:03;16.83;;;8.10;;
48550;SDS011;34397;51.176;6.738;2022-12-18T01:41:38;16.80;;;7.20;;
48550;SDS011;34397;51.176;6.738;2022-12-18T01:47:31;16.95;;;7.95;;
48550;SDS011;34397;51.176;6.738;2022-12-18T01:50:09;18.25;;;8.45;;
48550;SDS011;34397;51.176;6.738;2022-12-18T01:52:46;17.83;;;7.85;;
48550;SDS011;34397;51.176;6.738;2022-12-18T01:55:21;16.15;;;7.60;;
48550;SDS011;34397;51.176;6.738;2022-12-18T01:57:57;16.23;;;8.07;;
48550;SDS011;34397;51.176;6.738;2022-12-18T02:00:30;13.00;;;6.47;;
48550;SDS011;34397;51.176;6.738;2022-12-18T02:03:03;17.33;;;7.88;;
48550;SDS011;34397;51.176;6.738;2022-12-18T02:05:37;11.80;;;5.97;;
48550;SDS011;34397;51.176;6.738;2022-12-18T02:08:18;17.52;;;8.40;;
48550;SDS011;34397;51.176;6.738;2022-12-18T02:10:55;17.13;;;7.95;;
48550;SDS011;34397;51.176;6.738;2022-12-18T02:13:37;17.75;;;8.32;;
48550;SDS011;34397;51.176;6.738;2022-12-18T02:16:17;16.80;;;7.78;;
48550;SDS011;34397;51.176;6.738;2022-12-18T02:18:56;15.18;;;8.18;;
48550;SDS011;34397;51.176;6.738;2022-12-18T02:21:34;17.30;;;8.45;;
48550;SDS011;34397;51.176;6.738;2022-12-18T02:24:22;20.10;;;9.88;;
48550;SDS011;34397;51.176;6.738;2022-12-18T02:27:04;16.63;;;8.82;;
48550;SDS011;34397;51.176;6.738;2022-12-18T02:29:39;18.38;;;9.00;;
48550;SDS011;34397;51.176;6.738;2022-12-18T02:32:16;17.58;;;9.23;;
48550;SDS011;34397;51.176;6.738;2022-12-18T02:34:54;16.88;;;9.35;;
48550;SDS011;34397;51.176;6.738;2022-12-18T02:37:28;17.10;;;9.18;;
48550;SDS011;34397;51.176;6.738;2022-12-18T02:40:02;16.95;;;8.88;;
48550;SDS011;34397;51.176;6.738;2022-12-18T02:42:37;21.45;;;10.25;;
48550;SDS011;34397;51.176;6.738;2022-12-18T02:45:09;17.50;;;9.38;;
48550;SDS011;34397;51.176;6.738;2022-12-18T02:47:42;18.53;;;9.10;;
48550;SDS011;34397;51.176;6.738;2022-12-18T02:50:18;18.15;;;9.30;;
48550;SDS011;34397;51.176;6.738;2022-12-18T02:53:00;17.42;;;9.10;;
48550;SDS011;34397;51.176;6.738;2022-12-18T02:55:45;18.63;;;9.30;;
48550;SDS011;34397;51.176;6.738;2022-12-18T02:58:29;17.42;;;8.38;;
48550;SDS011;34397;51.176;6.738;2022-12-18T03:01:07;18.88;;;8.13;;
48550;SDS011;34397;51.176;6.738;2022-12-18T03:03:47;17.02;;;8.73;;
48550;SDS011;34397;51.176;6.738;2022-12-18T03:06:23;15.85;;;8.38;;
48550;SDS011;34397;51.176;6.738;2022-12-18T03:09:00;16.58;;;8.65;;
48550;SDS011;34397;51.176;6.738;2022-12-18T03:11:38;13.90;;;8.07;;
48550;SDS011;34397;51.176;6.738;2022-12-18T03:14:34;18.45;;;8.80;;
48550;SDS011;34397;51.176;6.738;2022-12-18T03:17:11;17.67;;;8.90;;
48550;SDS011;34397;51.176;6.738;2022-12-18T03:19:47;18.20;;;8.70;;
48550;SDS011;34397;51.176;6.738;2022-12-18T03:22:23;17.08;;;9.20;;
48550;SDS011;34397;51.176;6.738;2022-12-18T03:24:56;17.55;;;9.70;;
48550;SDS011;34397;51.176;6.738;2022-12-18T03:30:03;18.38;;;8.00;;
48550;SDS011;34397;51.176;6.738;2022-12-18T03:32:41;16.73;;;8.93;;
48550;SDS011;34397;51.176;6.738;2022-12-18T03:35:18;16.30;;;7.22;;
48550;SDS011;34397;51.176;6.738;2022-12-18T03:37:54;15.48;;;8.18;;
48550;SDS011;34397;51.176;6.738;2022-12-18T03:40:26;15.20;;;7.00;;
48550;SDS011;34397;51.176;6.738;2022-12-18T03:43:06;16.05;;;8.50;;
48550;SDS011;34397;51.176;6.738;2022-12-18T03:45:50;15.27;;;6.85;;
48550;SDS011;34397;51.176;6.738;2022-12-18T03:48:26;18.38;;;9.90;;
48550;SDS011;34397;51.176;6.738;2022-12-18T03:51:05;14.05;;;7.85;;
48550;SDS011;34397;51.176;6.738;2022-12-18T03:53:41;19.70;;;7.82;;
48550;SDS011;34397;51.176;6.738;2022-12-18T03:56:18;18.02;;;8.63;;
48550;SDS011;34397;51.176;6.738;2022-12-18T03:58:52;15.52;;;8.00;;
48550;SDS011;34397;51.176;6.738;2022-12-18T04:01:28;17.33;;;8.90;;
48550;SDS011;34397;51.176;6.738;2022-12-18T04:04:04;15.57;;;8.25;;
48550;SDS011;34397;51.176;6.738;2022-12-18T04:06:38;16.42;;;8.77;;
48550;SDS011;34397;51.176;6.738;2022-12-18T04:09:11;18.50;;;8.10;;
48550;SDS011;34397;51.176;6.738;2022-12-18T04:11:44;14.98;;;6.93;;
48550;SDS011;34397;51.176;6.738;2022-12-18T04:16:50;12.73;;;5.72;;
48550;SDS011;34397;51.176;6.738;2022-12-18T04:19:22;16.17;;;7.82;;
48550;SDS011;34397;51.176;6.738;2022-12-18T04:21:53;14.60;;;7.55;;
48550;SDS011;34397;51.176;6.738;2022-12-18T04:24:26;17.52;;;7.78;;
48550;SDS011;34397;51.176;6.738;2022-12-18T04:26:57;16.05;;;8.00;;
48550;SDS011;34397;51.176;6.738;2022-12-18T04:29:29;15.85;;;8.38;;
48550;SDS011;34397;51.176;6.738;2022-12-18T04:32:02;17.92;;;8.48;;
48550;SDS011;34397;51.176;6.738;2022-12-18T04:34:34;18.27;;;9.43;;
48550;SDS011;34397;51.176;6.738;2022-12-18T04:37:06;14.88;;;6.40;;
48550;SDS011;34397;51.176;6.738;2022-12-18T04:39:39;13.87;;;8.17;;
48550;SDS011;34397;51.176;6.738;2022-12-18T04:42:10;14.18;;;7.03;;
48550;SDS011;34397;51.176;6.738;2022-12-18T04:44:42;14.55;;;7.57;;
48550;SDS011;34397;51.176;6.738;2022-12-18T04:47:15;16.00;;;7.38;;
48550;SDS011;34397;51.176;6.738;2022-12-18T04:49:47;15.38;;;7.35;;
48550;SDS011;34397;51.176;6.738;2022-12-18T04:52:19;19.33;;;9.48;;
48550;SDS011;34397;51.176;6.738;2022-12-18T04:54:51;18.33;;;9.50;;
48550;SDS011;34397;51.176;6.738;2022-12-18T04:57:23;16.55;;;8.88;;
48550;SDS011;34397;51.176;6.738;2022-12-18T04:59:54;14.52;;;8.25;;
48550;SDS011;34397;51.176;6.738;2022-12-18T05:02:28;17.35;;;8.40;;
48550;SDS011;34397;51.176;6.738;2022-12-18T05:04:59;17.17;;;7.82;;
48550;SDS011;34397;51.176;6.738;2022-12-18T05:07:31;16.83;;;7.55;;
48550;SDS011;34397;51.176;6.738;2022-12-18T05:10:03;14.05;;;7.63;;
48550;SDS011;34397;51.176;6.738;2022-12-18T05:12:36;17.35;;;7.10;;
48550;SDS011;34397;51.176;6.738;2022-12-18T05:15:28;14.15;;;7.63;;
48550;SDS011;34397;51.176;6.738;2022-12-18T05:18:03;15.18;;;7.18;;
48550;SDS011;34397;51.176;6.738;2022-12-18T05:20:35;16.77;;;8.73;;
48550;SDS011;34397;51.176;6.738;2022-12-18T05:23:07;17.63;;;8.88;;
48550;SDS011;34397;51.176;6.738;2022-12-18T05:25:39;12.73;;;6.72;;
48550;SDS011;34397;51.176;6.738;2022-12-18T05:28:11;15.40;;;8.77;;
48550;SDS011;34397;51.176;6.738;2022-12-18T05:30:42;16.15;;;8.48;;
48550;SDS011;34397;51.176;6.738;2022-12-18T05:33:21;17.45;;;8.23;;
48550;SDS011;34397;51.176;6.738;2022-12-18T05:35:55;14.40;;;7.80;;
48550;SDS011;34397;51.176;6.738;2022-12-18T05:38:30;17.65;;;8.85;;
48550;SDS011;34397;51.176;6.738;2022-12-18T05:41:03;16.67;;;8.35;;
48550;SDS011;34397;51.176;6.738;2022-12-18T05:43:37;14.18;;;6.75;;
48550;SDS011;34397;51.176;6.738;2022-12-18T05:46:11;14.48;;;6.93;;
48550;SDS011;34397;51.176;6.738;2022-12-18T05:48:46;13.15;;;6.63;;
48550;SDS011;34397;51.176;6.738;2022-12-18T05:51:21;14.25;;;7.53;;
48550;SDS011;34397;51.176;6.738;2022-12-18T05:53:53;13.73;;;6.88;;
48550;SDS011;34397;51.176;6.738;2022-12-18T05:56:25;14.57;;;7.50;;
48550;SDS011;34397;51.176;6.738;2022-12-18T05:58:57;13.88;;;6.75;;
48550;SDS011;34397;51.176;6.738;2022-12-18T06:01:29;10.48;;;5.32;;
48550;SDS011;34397;51.176;6.738;2022-12-18T06:04:02;13.60;;;5.07;;
48550;SDS011;34397;51.176;6.738;2022-12-18T06:06:34;13.40;;;6.57;;
48550;SDS011;34397;51.176;6.738;2022-12-18T06:09:06;13.38;;;6.90;;
48550;SDS011;34397;51.176;6.738;2022-12-18T06:11:39;11.90;;;6.18;;
48550;SDS011;34397;51.176;6.738;2022-12-18T06:14:11;12.60;;;5.57;;
48550;SDS011;34397;51.176;6.738;2022-12-18T06:16:43;12.50;;;6.35;;
48550;SDS011;34397;51.176;6.738;2022-12-18T06:19:16;10.85;;;4.43;;
48550;SDS011;34397;51.176;6.738;2022-12-18T06:21:49;10.95;;;4.00;;
48550;SDS011;34397;51.176;6.738;2022-12-18T06:24:21;13.32;;;5.75;;
48550;SDS011;34397;51.176;6.738;2022-12-18T06:26:53;14.55;;;5.20;;
48550;SDS011;34397;51.176;6.738;2022-12-18T06:29:24;13.73;;;5.78;;
48550;SDS011;34397;51.176;6.738;2022-12-18T06:31:56;15.63;;;7.53;;
48550;SDS011;34397;51.176;6.738;2022-12-18T06:34:29;13.88;;;6.70;;
48550;SDS011;34397;51.176;6.738;2022-12-18T06:37:01;14.60;;;7.10;;
48550;SDS011;34397;51.176;6.738;2022-12-18T06:39:33;13.65;;;6.45;;
48550;SDS011;34397;51.176;6.738;2022-12-18T06:42:05;10.07;;;5.20;;
48550;SDS011;34397;51.176;6.738;2022-12-18T06:44:37;15.25;;;7.03;;
48550;SDS011;34397;51.176;6.738;2022-12-18T06:47:08;11.75;;;6.53;;
48550;SDS011;34397;51.176;6.738;2022-12-18T06:49:42;15.30;;;7.22;;
48550;SDS011;34397;51.176;6.738;2022-12-18T06:52:14;12.90;;;6.40;;
48550;SDS011;34397;51.176;6.738;2022-12-18T06:54:46;13.60;;;5.97;;
48550;SDS011;34397;51.176;6.738;2022-12-18T06:57:17;13.63;;;5.95;;
48550;SDS011;34397;51.176;6.738;2022-12-18T06:59:49;15.38;;;7.05;;
48550;SDS011;34397;51.176;6.738;2022-12-18T07:02:21;13.00;;;7.00;;
48550;SDS011;34397;51.176;6.738;2022-12-18T07:04:55;14.23;;;6.50;;
48550;SDS011;34397;51.176;6.738;2022-12-18T07:07:26;13.05;;;6.65;;
48550;SDS011;34397;51.176;6.738;2022-12-18T07:09:58;10.77;;;5.18;;
48550;SDS011;34397;51.176;6.738;2022-12-18T07:12:30;14.07;;;6.57;;
48550;SDS011;34397;51.176;6.738;2022-12-18T07:15:02;14.27;;;7.17;;
48550;SDS011;34397;51.176;6.738;2022-12-18T07:17:35;13.02;;;6.47;;
48550;SDS011;34397;51.176;6.738;2022-12-18T07:20:09;18.60;;;6.28;;
48550;SDS011;34397;51.176;6.738;2022-12-18T07:22:42;15.50;;;7.40;;
48550;SDS011;34397;51.176;6.738;2022-12-18T07:25:13;13.15;;;6.68;;
48550;SDS011;34397;51.176;6.738;2022-12-18T07:27:45;16.33;;;7.63;;
48550;SDS011;34397;51.176;6.738;2022-12-18T07:30:17;15.50;;;7.07;;
48550;SDS011;34397;51.176;6.738;2022-12-18T07:32:49;11.65;;;5.55;;
48550;SDS011;34397;51.176;6.738;2022-12-18T07:35:22;15.50;;;6.00;;
48550;SDS011;34397;51.176;6.738;2022-12-18T07:37:54;14.88;;;7.47;;
48550;SDS011;34397;51.176;6.738;2022-12-18T07:40:26;13.90;;;6.80;;
48550;SDS011;34397;51.176;6.738;2022-12-18T07:42:58;15.73;;;6.60;;
48550;SDS011;34397;51.176;6.738;2022-12-18T07:45:29;15.07;;;7.70;;
48550;SDS011;34397;51.176;6.738;2022-12-18T07:48:01;11.88;;;5.75;;
48550;SDS011;34397;51.176;6.738;2022-12-18T07:50:35;11.10;;;5.18;;
48550;SDS011;34397;51.176;6.738;2022-12-18T07:53:08;12.05;;;5.53;;
48550;SDS011;34397;51.176;6.738;2022-12-18T07:55:39;18.67;;;8.35;;
48550;SDS011;34397;51.176;6.738;2022-12-18T07:58:12;8.20;;;3.85;;
48550;SDS011;34397;51.176;6.738;2022-12-18T08:00:44;13.18;;;5.93;;
48550;SDS011;34397;51.176;6.738;2022-12-18T08:03:15;9.23;;;4.53;;
48550;SDS011;34397;51.176;6.738;2022-12-18T08:05:48;13.55;;;5.90;;
48550;SDS011;34397;51.176;6.738;2022-12-18T08:08:20;12.23;;;5.50;;
48550;SDS011;34397;51.176;6.738;2022-12-18T08:10:52;10.55;;;5.05;;
48550;SDS011;34397;51.176;6.738;2022-12-18T08:13:24;10.65;;;6.18;;
48550;SDS011;34397;51.176;6.738;2022-12-18T08:15:57;11.95;;;6.05;;
48550;SDS011;34397;51.176;6.738;2022-12-18T08:18:31;11.88;;;5.20;;
48550;SDS011;34397;51.176;6.738;2022-12-18T08:21:09;16.88;;;6.63;;
48550;SDS011;34397;51.176;6.738;2022-12-18T08:23:42;9.13;;;4.10;;
48550;SDS011;34397;51.176;6.738;2022-12-18T08:26:14;16.47;;;8.27;;
48550;SDS011;34397;51.176;6.738;2022-12-18T08:28:46;12.05;;;5.32;;
48550;SDS011;34397;51.176;6.738;2022-12-18T08:31:19;15.38;;;7.93;;
48550;SDS011;34397;51.176;6.738;2022-12-18T08:33:51;11.38;;;6.43;;
48550;SDS011;34397;51.176;6.738;2022-12-18T08:36:26;13.80;;;5.43;;
48550;SDS011;34397;51.176;6.738;2022-12-18T08:38:57;8.88;;;4.25;;
48550;SDS011;34397;51.176;6.738;2022-12-18T08:41:29;11.75;;;5.97;;
48550;SDS011;34397;51.176;6.738;2022-12-18T08:44:01;10.23;;;4.57;;
48550;SDS011;34397;51.176;6.738;2022-12-18T08:46:51;14.68;;;6.55;;
48550;SDS011;34397;51.176;6.738;2022-12-18T08:49:22;12.48;;;6.20;;
48550;SDS011;34397;51.176;6.738;2022-12-18T08:51:56;13.15;;;6.50;;
48550;SDS011;34397;51.176;6.738;2022-12-18T08:54:28;14.00;;;6.10;;
48550;SDS011;34397;51.176;6.738;2022-12-18T08:57:00;11.02;;;5.97;;
48550;SDS011;34397;51.176;6.738;2022-12-18T08:59:32;12.57;;;6.15;;
48550;SDS011;34397;51.176;6.738;2022-12-18T09:02:04;12.05;;;5.07;;
48550;SDS011;34397;51.176;6.738;2022-12-18T09:04:36;12.00;;;4.65;;
48550;SDS011;34397;51.176;6.738;2022-12-18T09:07:11;11.27;;;5.13;;
48550;SDS011;34397;51.176;6.738;2022-12-18T09:12:14;10.75;;;5.45;;
48550;SDS011;34397;51.176;6.738;2022-12-18T09:14:46;12.57;;;4.60;;
48550;SDS011;34397;51.176;6.738;2022-12-18T09:17:18;14.95;;;7.55;;
48550;SDS011;34397;51.176;6.738;2022-12-18T09:19:50;13.13;;;6.25;;
48550;SDS011;34397;51.176;6.738;2022-12-18T09:22:23;14.02;;;5.53;;
48550;SDS011;34397;51.176;6.738;2022-12-18T09:24:55;15.18;;;7.88;;
48550;SDS011;34397;51.176;6.738;2022-12-18T09:27:27;14.38;;;7.40;;
48550;SDS011;34397;51.176;6.738;2022-12-18T09:29:59;13.75;;;6.82;;
48550;SDS011;34397;51.176;6.738;2022-12-18T09:32:31;20.97;;;9.70;;
48550;SDS011;34397;51.176;6.738;2022-12-18T09:35:03;14.25;;;7.50;;
48550;SDS011;34397;51.176;6.738;2022-12-18T09:37:37;16.77;;;9.10;;
48550;SDS011;34397;51.176;6.738;2022-12-18T09:40:12;14.10;;;7.45;;
48550;SDS011;34397;51.176;6.738;2022-12-18T09:42:46;13.13;;;6.63;;
48550;SDS011;34397;51.176;6.738;2022-12-18T09:45:23;16.10;;;6.05;;
48550;SDS011;34397;51.176;6.738;2022-12-18T09:47:55;13.43;;;5.82;;
48550;SDS011;34397;51.176;6.738;2022-12-18T09:50:29;15.20;;;6.80;;
48550;SDS011;34397;51.176;6.738;2022-12-18T09:53:05;16.45;;;7.82;;
48550;SDS011;34397;51.176;6.738;2022-12-18T09:55:45;11.23;;;6.10;;
48550;SDS011;34397;51.176;6.738;2022-12-18T09:58:20;15.75;;;8.15;;
48550;SDS011;34397;51.176;6.738;2022-12-18T10:00:59;9.48;;;4.80;;
48550;SDS011;34397;51.176;6.738;2022-12-18T10:03:31;12.10;;;6.03;;
48550;SDS011;34397;51.176;6.738;2022-12-18T10:06:05;16.05;;;8.10;;
48550;SDS011;34397;51.176;6.738;2022-12-18T10:08:45;12.60;;;5.75;;
48550;SDS011;34397;51.176;6.738;2022-12-18T10:11:27;16.90;;;6.85;;
48550;SDS011;34397;51.176;6.738;2022-12-18T10:14:09;17.25;;;7.15;;
48550;SDS011;34397;51.176;6.738;2022-12-18T10:16:53;16.70;;;8.10;;
48550;SDS011;34397;51.176;6.738;2022-12-18T10:19:41;18.13;;;8.93;;
48550;SDS011;34397;51.176;6.738;2022-12-18T10:22:33;13.40;;;7.65;;
48550;SDS011;34397;51.176;6.738;2022-12-18T10:25:18;16.80;;;7.57;;
48550;SDS011;34397;51.176;6.738;2022-12-18T10:27:56;14.00;;;5.53;;
48550;SDS011;34397;51.176;6.738;2022-12-18T10:30:38;12.18;;;5.60;;
48550;SDS011;34397;51.176;6.738;2022-12-18T10:33:11;14.63;;;6.45;;
48550;SDS011;34397;51.176;6.738;2022-12-18T10:35:45;14.77;;;6.38;;
48550;SDS011;34397;51.176;6.738;2022-12-18T10:38:20;15.75;;;7.22;;
48550;SDS011;34397;51.176;6.738;2022-12-18T10:40:57;10.93;;;6.05;;
48550;SDS011;34397;51.176;6.738;2022-12-18T10:43:32;17.17;;;7.57;;
48550;SDS011;34397;51.176;6.738;2022-12-18T10:46:15;12.00;;;6.15;;
48550;SDS011;34397;51.176;6.738;2022-12-18T10:48:52;16.92;;;8.88;;
48550;SDS011;34397;51.176;6.738;2022-12-18T10:51:26;13.77;;;6.35;;
48550;SDS011;34397;51.176;6.738;2022-12-18T10:54:02;14.18;;;6.45;;
48550;SDS011;34397;51.176;6.738;2022-12-18T10:56:38;16.02;;;7.97;;
48550;SDS011;34397;51.176;6.738;2022-12-18T10:59:11;12.90;;;5.38;;
48550;SDS011;34397;51.176;6.738;2022-12-18T11:01:45;15.65;;;7.10;;
48550;SDS011;34397;51.176;6.738;2022-12-18T11:04:21;16.15;;;7.88;;
48550;SDS011;34397;51.176;6.738;2022-12-18T11:06:56;13.52;;;6.30;;
48550;SDS011;34397;51.176;6.738;2022-12-18T11:09:31;16.63;;;7.90;;
48550;SDS011;34397;51.176;6.738;2022-12-18T11:12:08;15.82;;;8.27;;
48550;SDS011;34397;51.176;6.738;2022-12-18T11:14:49;15.50;;;8.13;;
48550;SDS011;34397;51.176;6.738;2022-12-18T11:17:25;14.98;;;7.43;;
48550;SDS011;34397;51.176;6.738;2022-12-18T11:20:02;10.63;;;5.68;;
48550;SDS011;34397;51.176;6.738;2022-12-18T11:22:38;14.23;;;6.43;;
48550;SDS011;34397;51.176;6.738;2022-12-18T11:25:17;18.50;;;6.70;;
48550;SDS011;34397;51.176;6.738;2022-12-18T11:27:52;14.68;;;7.38;;
48550;SDS011;34397;51.176;6.738;2022-12-18T11:30:28;16.10;;;8.50;;
48550;SDS011;34397;51.176;6.738;2022-12-18T11:33:03;12.18;;;6.47;;
48550;SDS011;34397;51.176;6.738;2022-12-18T11:35:39;16.33;;;8.13;;
48550;SDS011;34397;51.176;6.738;2022-12-18T11:38:17;16.30;;;7.93;;
48550;SDS011;34397;51.176;6.738;2022-12-18T11:40:55;13.68;;;6.43;;
48550;SDS011;34397;51.176;6.738;2022-12-18T11:43:33;15.55;;;6.93;;
48550;SDS011;34397;51.176;6.738;2022-12-18T11:46:13;15.85;;;8.23;;
48550;SDS011;34397;51.176;6.738;2022-12-18T11:48:52;17.25;;;8.82;;
48550;SDS011;34397;51.176;6.738;2022-12-18T11:51:33;15.57;;;7.13;;
48550;SDS011;34397;51.176;6.738;2022-12-18T11:54:12;16.23;;;8.77;;
48550;SDS011;34397;51.176;6.738;2022-12-18T11:56:47;9.50;;;4.55;;
48550;SDS011;34397;51.176;6.738;2022-12-18T11:59:26;13.82;;;8.07;;
48550;SDS011;34397;51.176;6.738;2022-12-18T12:02:11;17.23;;;6.88;;
48550;SDS011;34397;51.176;6.738;2022-12-18T12:05:03;18.15;;;8.40;;
48550;SDS011;34397;51.176;6.738;2022-12-18T12:07:57;18.50;;;9.18;;
48550;SDS011;34397;51.176;6.738;2022-12-18T12:10:41;16.27;;;7.77;;
48550;SDS011;34397;51.176;6.738;2022-12-18T12:13:28;16.50;;;7.05;;
48550;SDS011;34397;51.176;6.738;2022-12-18T12:16:17;16.58;;;8.15;;
48550;SDS011;34397;51.176;6.738;2022-12-18T12:19:00;19.45;;;7.90;;
48550;SDS011;34397;51.176;6.738;2022-12-18T12:21:48;14.15;;;6.95;;
48550;SDS011;34397;51.176;6.738;2022-12-18T12:24:30;21.10;;;10.35;;
48550;SDS011;34397;51.176;6.738;2022-12-18T12:27:14;21.23;;;10.52;;
48550;SDS011;34397;51.176;6.738;2022-12-18T12:29:59;17.85;;;7.75;;
48550;SDS011;34397;51.176;6.738;2022-12-18T12:32:53;17.42;;;8.30;;
48550;SDS011;34397;51.176;6.738;2022-12-18T12:35:44;19.25;;;8.05;;
48550;SDS011;34397;51.176;6.738;2022-12-18T12:38:23;15.45;;;6.85;;
48550;SDS011;34397;51.176;6.738;2022-12-18T12:41:00;15.82;;;8.18;;
48550;SDS011;34397;51.176;6.738;2022-12-18T12:43:38;19.45;;;9.77;;
48550;SDS011;34397;51.176;6.738;2022-12-18T12:46:13;17.48;;;8.25;;
48550;SDS011;34397;51.176;6.738;2022-12-18T12:48:50;13.50;;;6.85;;
48550;SDS011;34397;51.176;6.738;2022-12-18T12:51:27;18.90;;;8.90;;
48550;SDS011;34397;51.176;6.738;2022-12-18T12:54:02;16.75;;;8.18;;
48550;SDS011;34397;51.176;6.738;2022-12-18T12:56:42;14.95;;;7.35;;
48550;SDS011;34397;51.176;6.738;2022-12-18T12:59:22;19.23;;;8.82;;
48550;SDS011;34397;51.176;6.738;2022-12-18T13:02:03;18.20;;;8.13;;
48550;SDS011;34397;51.176;6.738;2022-12-18T13:04:47;17.38;;;9.75;;
48550;SDS011;34397;51.176;6.738;2022-12-18T13:07:24;18.27;;;8.25;;
48550;SDS011;34397;51.176;6.738;2022-12-18T13:13:10;17.50;;;8.77;;
48550;SDS011;34397;51.176;6.738;2022-12-18T13:15:43;19.15;;;10.05;;
48550;SDS011;34397;51.176;6.738;2022-12-18T13:18:18;17.85;;;8.00;;
48550;SDS011;34397;51.176;6.738;2022-12-18T13:21:01;18.05;;;8.27;;
48550;SDS011;34397;51.176;6.738;2022-12-18T13:23:51;17.98;;;8.75;;
48550;SDS011;34397;51.176;6.738;2022-12-18T13:26:32;17.33;;;9.07;;
48550;SDS011;34397;51.176;6.738;2022-12-18T13:29:04;15.57;;;8.48;;
48550;SDS011;34397;51.176;6.738;2022-12-18T13:38:22;17.02;;;8.05;;
48550;SDS011;34397;51.176;6.738;2022-12-18T13:40:57;21.65;;;9.77;;
48550;SDS011;34397;51.176;6.738;2022-12-18T13:43:41;20.65;;;7.72;;
48550;SDS011;34397;51.176;6.738;2022-12-18T13:46:19;15.98;;;7.53;;
48550;SDS011;34397;51.176;6.738;2022-12-18T13:48:55;18.30;;;9.60;;
48550;SDS011;34397;51.176;6.738;2022-12-18T13:51:34;19.15;;;9.40;;
48550;SDS011;34397;51.176;6.738;2022-12-18T13:54:13;21.00;;;11.43;;
48550;SDS011;34397;51.176;6.738;2022-12-18T13:56:51;22.70;;;9.20;;
48550;SDS011;34397;51.176;6.738;2022-12-18T13:59:23;16.75;;;7.85;;
48550;SDS011;34397;51.176;6.738;2022-12-18T14:01:58;19.35;;;10.45;;
48550;SDS011;34397;51.176;6.738;2022-12-18T14:04:32;19.02;;;8.13;;
48550;SDS011;34397;51.176;6.738;2022-12-18T14:07:06;22.58;;;9.98;;
48550;SDS011;34397;51.176;6.738;2022-12-18T14:09:45;21.85;;;10.57;;
48550;SDS011;34397;51.176;6.738;2022-12-18T14:12:21;20.52;;;11.13;;
48550;SDS011;34397;51.176;6.738;2022-12-18T14:15:17;22.60;;;10.40;;
48550;SDS011;34397;51.176;6.738;2022-12-18T14:17:58;26.92;;;11.15;;
48550;SDS011;34397;51.176;6.738;2022-12-18T14:20:33;16.77;;;8.48;;
48550;SDS011;34397;51.176;6.738;2022-12-18T14:23:24;18.85;;;8.57;;
48550;SDS011;34397;51.176;6.738;2022-12-18T14:26:00;21.02;;;11.27;;
48550;SDS011;34397;51.176;6.738;2022-12-18T14:28:33;20.10;;;9.75;;
48550;SDS011;34397;51.176;6.738;2022-12-18T14:31:17;21.25;;;9.10;;
48550;SDS011;34397;51.176;6.738;2022-12-18T14:33:50;18.23;;;9.15;;
48550;SDS011;34397;51.176;6.738;2022-12-18T14:36:23;21.10;;;11.93;;
48550;SDS011;34397;51.176;6.738;2022-12-18T14:38:57;19.23;;;9.50;;
48550;SDS011;34397;51.176;6.738;2022-12-18T14:41:31;19.60;;;9.50;;
48550;SDS011;34397;51.176;6.738;2022-12-18T14:44:05;20.15;;;11.18;;
48550;SDS011;34397;51.176;6.738;2022-12-18T14:46:39;19.95;;;9.93;;
48550;SDS011;34397;51.176;6.738;2022-12-18T14:49:17;19.50;;;9.30;;
48550;SDS011;34397;51.176;6.738;2022-12-18T14:51:55;18.75;;;9.82;;
48550;SDS011;34397;51.176;6.738;2022-12-18T14:54:29;20.33;;;9.82;;
48550;SDS011;34397;51.176;6.738;2022-12-18T14:57:04;22.50;;;11.13;;
48550;SDS011;34397;51.176;6.738;2022-12-18T14:59:52;24.67;;;10.20;;
48550;SDS011;34397;51.176;6.738;2022-12-18T15:02:25;18.13;;;9.13;;
48550;SDS011;34397;51.176;6.738;2022-12-18T15:05:00;19.20;;;8.00;;
48550;SDS011;34397;51.176;6.738;2022-12-18T15:07:39;20.38;;;8.93;;
48550;SDS011;34397;51.176;6.738;2022-12-18T15:10:14;18.30;;;9.65;;
48550;SDS011;34397;51.176;6.738;2022-12-18T15:12:49;22.67;;;11.57;;
48550;SDS011;34397;51.176;6.738;2022-12-18T15:15:45;21.33;;;10.32;;
48550;SDS011;34397;51.176;6.738;2022-12-18T15:18:19;15.48;;;7.88;;
48550;SDS011;34397;51.176;6.738;2022-12-18T15:20:57;17.73;;;8.75;;
48550;SDS011;34397;51.176;6.738;2022-12-18T15:23:32;20.30;;;10.00;;
48550;SDS011;34397;51.176;6.738;2022-12-18T15:26:08;24.35;;;12.20;;
48550;SDS011;34397;51.176;6.738;2022-12-18T15:28:45;23.48;;;11.60;;
48550;SDS011;34397;51.176;6.738;2022-12-18T15:31:22;18.55;;;9.18;;
48550;SDS011;34397;51.176;6.738;2022-12-18T15:34:00;22.75;;;11.20;;
48550;SDS011;34397;51.176;6.738;2022-12-18T15:36:42;15.32;;;7.22;;
48550;SDS011;34397;51.176;6.738;2022-12-18T15:39:14;19.42;;;8.95;;
48550;SDS011;34397;51.176;6.738;2022-12-18T15:41:46;22.40;;;11.88;;
48550;SDS011;34397;51.176;6.738;2022-12-18T15:44:37;21.42;;;10.90;;